CheckWX is a tool to help pilots better visualize weather data.  It is not intended as a substitute for an official pre-flight weather briefing.

05:19:37 UTC

CYDC METAR
Princeton Airport
Town of Princeton, Canada
Current

4 hours ago

CYDC 200100Z 07003KT 020V100 15SM FEW010 FEW046 BKN093 BKN100 BKN280 M06/M08 A2980 RMK CF1CU1AS7AC1CI1 CF TR CU TR AC TR CI TR LAST STFD OB/NEXT 20 1500UTC SLP133
Observed
Feb-20 @ 01:00 UTC
Wind
  • 070° at 3 KTS
Visibility
24,140 meters
Flight Rules
VFR
Cloud Levels
  • Few at 1,000' AGL
  • Few at 4,600' AGL
  • Broken at 9,300' AGL
  • Broken at 10,000' AGL
Temperature
-6°C / 21°F
Dewpoint
-8°C / 18°F
Humidity
86%
Altimeter
29.8" Hg
Pressure
1013.3 hPa
Previous

5 hours ago

CYDC 200000Z 06004KT 030V120 10SM SCT066 OVC073 M05/M08 A2983 RMK AS3AS5 SLP141
Observed
Feb-20 @ 00:00 UTC
Wind
  • 060° at 4 KTS
Visibility
16,093 meters
Flight Rules
VFR
Cloud Levels
  • Scattered at 6,600' AGL
  • Overcast at 7,300' AGL
Temperature
-5°C / 23°F
Dewpoint
-8°C / 18°F
Humidity
80%
Altimeter
29.83" Hg
Pressure
1014.1 hPa
Previous

6 hours ago

CYDC 192300Z 10004KT 10SM SCT051 BKN070 OVC080 M05/M08 A2985 RMK SC3AC3AS2 SLP148
Observed
Feb-19 @ 23:00 UTC
Wind
  • 100° at 4 KTS
Visibility
16,093 meters
Flight Rules
VFR
Cloud Levels
  • Scattered at 5,100' AGL
  • Broken at 7,000' AGL
  • Overcast at 8,000' AGL
Temperature
-5°C / 23°F
Dewpoint
-8°C / 18°F
Humidity
80%
Altimeter
29.85" Hg
Pressure
1014.8 hPa